Terminal Aerodrome Forecast
Issued by NWS Glasgow, MT

Home | Current Version | Previous Version | Text Only | Print | Product List | Glossary On
Versions: 1 2 3 4 5 6 7 8 9 10 11 12 13
000
FTUS45 KGGW 201100
TAFGGW
TAF
KGGW 201129Z 2012/2112 30010KT P6SM SCT080 WS008/31035KT
     FM201500 32018KT P6SM FEW200
     FM210300 VRB06KT P6SM FEW200=

USA.gov is the U.S. government's official web portal to all federal, state and local government web resources and services.